TFM - Tactical Decision Aid
ID: Runway Winds: CIG/VIS Threshold:

KMEI - Meridian/Key Fld, MS, US

Updated at: 0902 UTC 07 Dec 2022
Latest TAF at: 0606 UTC 07 Dec 2022

TAF Board

Time0858Z 07/10Z 07/11Z 07/12Z 07/13Z 07/14Z 07/15Z 07/16Z 07/17Z 07/18Z 07/19Z 07/20Z 07/21Z 07/22Z>>
Type OBS PRVL PRVL
  [TEMP]  
PRVL
  [TEMP]  
PRVL PRVL PRVL PRVL PRVL PRVL PRVL PRVL PRVL PRVL
VIS 10 >6 4
  [2]  
4
  [2]  
4 4 4 4 4 4 >6 >6 >6 >6
CIG 10 12 11
  [6]  
11
  [6]  
11 11 11 11 11 11 -- -- -- --
Cover OVC BKN BKN
  [OVC]  
BKN
  [OVC]  
BKN BKN BKN BKN BKN BKN SCT SCT SCT SCT
FltCat MVFR MVFR MVFR
  [IFR]  
MVFR
  [IFR]  
MVFR MVFR MVFR MVFR MVFR MVFR VFR VFR VFR VFR
WX -- -- BR
  [BR]  
BR
  [BR]  
BR BR BR BR BR BR -- -- -- --
WDir 190 190 210
[210]
210
[210]
210 210 210 210 210 210 230 230 230 230
WSpd 7 4 7
  [7]  
7
  [7]  
7 7 7 7 7 7 7 7 7 7
WGst -- -- --
  [--]  
--
  [--]  
-- -- -- -- -- -- -- -- -- --
WSHgt -- -- --
[--]
--
[--]
-- -- -- -- -- -- -- -- -- --
WSDir -- -- --
[--]
--
[--]
-- -- -- -- -- -- -- -- -- --
WSSpd -- -- --
[--]
--
[--]
-- -- -- -- -- -- -- -- -- --

TDA Impact Legend

  None Marginal Slight Moderate High
Visibility (sm) >5 3≤X≤5 2≤X<3 0.5≤X<2 <0.5
Ceiling (100 ft) >30 10≤X≤30 7≤X<10 2≤X<7 <2
Wind Speed (kt) <15 15≤X<25 25≤X<30 ≥30
Wind Gust (kt) <15 15≤X<25 25≤X<35 ≥35
Weather No Wx Reported VCTS -TS,-FZRA TS,FZRA +TS,+FZRA
TAF
KMEI 070606Z 0706/0806 19004KT P6SM BKN012
  FM071100 21007KT 4SM BR BKN011
  TEMPO 0711/0713 2SM BR OVC006
  FM071900 23007KT P6SM SCT060


METAR
KMEI 070858Z AUTO 19007KT 10SM OVC010 21/19 A3020 RMK AO2 SLP221 I1000 I3/// T02060194 53010
KMEI 070758Z AUTO 19006KT 10SM OVC010 21/19 A3018 RMK AO2 CIG 009V015 SLP216 I1000 T02060194
KMEI 070708Z AUTO 20007KT 10SM BKN010 BKN045 21/19 A3016 RMK AO2 I1000 T02060189
KMEI 070658Z AUTO 19008KT 10SM SCT011 SCT045 20/19 A3016 RMK AO2 SLP211 I1000 T02000189
KMEI 070651Z AUTO 19008KT 10SM SCT011 SCT045 20/19 A3016 RMK AO2 I1000 T02000189
KMEI 070642Z AUTO 20007KT 10SM BKN011 21/19 A3017 RMK AO2 I1000 T02060189
KMEI 070634Z AUTO 19008KT 10SM SCT011 21/19 A3016 RMK AO2 I1000 T02060189
KMEI 070558Z AUTO 19006KT 10SM BKN012 21/19 A3017 RMK AO2 SLP211 I1000 I6/// T02060189 10217 20200 402670189 51015

Radar Display
Forecast Discussion